Terminal Aerodrome Forecast
Issued by NWS Melbourne, FL

Home | Current Version | Previous Version | Text Only | Print | Product List | Glossary On
Versions: 1 2 3 4 5 6 7 8 9 10 11 12 13 14 15 16 17 18 19 20 21 22 23 24 25 26 27 28
000
FTUS42 KMLB 012320
TAFMCO
TAF
KMCO 012320Z 0200/0224 19004KT P6SM FEW030 SCT060 OVC080
     FM021400 22010KT P6SM SCT030 BKN120
     FM021600 23014G22KT P6SM VCSH SCT040 BKN080
      TEMPO 0216/0220 3SM TSRA BKN020CB OVC040
     FM022200 23010KT P6SM SCT030 OVC060=

USA.gov is the U.S. government's official web portal to all federal, state and local government web resources and services.